Flight Track Log - Related Links

Times and Time Zones

All times are in EDT time to prevent confusion due to time zone crossing. See the N901QS flight status page for this flight to view local times or setup timezone preferences in your user account.

Time Position Orientation Groundspeed Altitude Reporting Facility
EDT Latitude Longitude Course Direction KTS MPH feet Rate Location/Type
Wed 06:33:23 AM 42.1708 -72.7144 North 185 213 1,300  Level Boston Center
Wed 06:33:59 AM 42.2022 -72.7119 North 198 228 4,100 3,632 Climbing Boston Center
Wed 06:34:39 AM 42.2250 -72.7400 318° Northwest 236 272 5,900 3,344 Climbing Boston Center
Wed 06:35:00 AM 42.2206 -72.7878 263° West 255 293 7,500 3,800 Climbing Boston Center
Wed 06:35:39 AM 42.2058 -72.8522 253° West 278 320 9,700 2,273 Climbing Boston Center
Wed 06:36:06 AM 42.1972 -72.8969 255° West 287 330 10,000 400 Climbing Boston Center
Wed 06:36:39 AM 42.1844 -72.9611 255° West 313 360 10,100  Climbing Boston Center
Wed 06:37:39 AM 42.1608 -73.0928 256° West 345 397 10,000 -50 Descending Boston Center
Wed 06:38:39 AM 42.1331 -73.2239 254° West 367 422 10,000 -50 Level Boston Center
Wed 06:39:39 AM 42.1194 -73.3581 262° West 367 422 9,900 -50 Descending Boston Center
Wed 06:40:39 AM 42.0872 -73.4864 251° West 367 422 9,900 50 Level Boston Center
Wed 06:41:39 AM 42.0172 -73.5942 229° Southwest 366 421 10,000 50 Climbing Boston Center
Wed 06:42:39 AM 41.9600 -73.6936 232° Southwest 388 447 10,000  Level Boston Center
Wed 06:43:39 AM 41.8856 -73.8147 230° Southwest 382 440 10,000 -150 Level Boston Center
Wed 06:44:39 AM 41.8261 -73.9139 231° Southwest 388 447 9,700 -500 Descending Boston Center
Wed 06:45:39 AM 41.7642 -74.0181 231° Southwest 351 404 9,000 -950 Descending Boston Center
Wed 06:46:39 AM 41.7172 -74.0922 230° Southwest 312 359 7,800 -950 Descending Boston Center
Wed 06:47:39 AM 41.6617 -74.1822 230° Southwest 292 336 7,100 -350 Descending Boston Center
Wed 06:48:39 AM 41.6125 -74.2644 231° Southwest 292 336 7,100  Level Boston Center
Wed 06:49:39 AM 41.5633 -74.3433 230° Southwest 292 336 7,100  Level Boston Center
Wed 06:50:39 AM 41.5139 -74.4250 231° Southwest 292 336 7,100  Level Boston Center
Wed 06:51:39 AM 41.4667 -74.5011 230° Southwest 286 329 7,100 -300 Level Boston Center
Wed 06:52:39 AM 41.4194 -74.5772 230° Southwest 281 323 6,500 -600 Descending Boston Center
Wed 06:53:19 AM 41.3667 -74.6000 198° South 284 327 6,100 -253 Descending New York TRACON
Wed 06:54:14 AM 41.3000 -74.6333 201° Southwest 302 348 6,100 -165 Level New York TRACON
Wed 06:55:08 AM 41.2167 -74.6167 171° South 311 358 5,800 -833 Descending New York TRACON
Wed 06:56:02 AM 41.1500 -74.6000 169° South 302 348 4,600 -895 Descending New York TRACON
Wed 06:57:02 AM 41.0667 -74.5833 171° South 295 339 4,100 -316 Descending New York TRACON
Wed 06:57:56 AM 40.9833 -74.5667 171° South 283 326 4,000 -579 Descending New York TRACON
Wed 06:58:56 AM 40.9167 -74.5500 169° South 285 328 3,000 -526 Descending New York TRACON
Wed 06:59:50 AM 40.8500 -74.5000 150° Southeast 266 306 3,000  Level New York TRACON
Wed 07:00:56 AM 40.7833 -74.4500 150° Southeast 291 335 3,000  Level New York TRACON
Wed 07:01:50 AM 40.7500 -74.3667 118° Southeast 262 302 3,000 -474 Level New York TRACON
Wed 07:02:50 AM 40.7000 -74.3000 135° Southeast 247 284 2,100 -650 Descending New York TRACON
Wed 07:03:50 AM 40.7333 -74.2333 57° Northeast 199 229 1,700 -250 Descending New York TRACON
Wed 07:04:50 AM 40.7667 -74.1833 49° Northeast 200 230 1,600 -104 Descending New York TRACON
Wed 07:05:45 AM 40.8000 -74.1500 37° Northeast 160 184 1,500 -385 Descending New York TRACON
Wed 07:06:39 AM 40.8167 -74.1000 66° East 135 155 900 -667 Descending New York TRACON
Wed 07:08:00 AM 40.8500 -74.0500 67° East  Level FlightAware Approximate
Wed 07:15:00 AM 40.8501 -74.0608 67° East  Level Estimated
Wed 07:16:00 AM 40.8501 -74.0608 67° East  Level Estimated

Login

Don't have an account? Register now (free) for customized features, flight alerts, and more!